Time;durP1;ratioP1;P1;durP2;ratioP2;P2;SDS_P1;SDS_P2;PMS_P1;PMS_P2;Temp;Humidity;BMP_temperature;BMP_pressure;BME280_temperature;BME280_humidity;BME280_pressure;Samples;Min_cycle;Max_cycle;Signal;HPM_P1;HPM_P2
2022/01/05 00:01:47;;;;;;;2.80;2.50;;;;;;;;;;5022588;28;20198;-83
2022/01/05 00:04:16;;;;;;;2.67;2.47;;;;;;;;;;5019961;28;20230;-82
2022/01/05 00:06:44;;;;;;;2.80;2.60;;;;;;;;;;5020200;28;20242;-83
2022/01/05 00:09:12;;;;;;;3.00;2.70;;;;;;;;;;5020240;28;20233;-83
2022/01/05 00:11:42;;;;;;;3.30;2.73;;;;;;;;;;5020103;28;20202;-83
2022/01/05 00:14:09;;;;;;;3.20;2.60;;;;;;;;;;5021283;28;20238;-82
2022/01/05 00:16:37;;;;;;;4.10;2.60;;;;;;;;;;5020617;28;20206;-83
2022/01/05 00:19:04;;;;;;;3.00;2.70;;;;;;;;;;5019137;28;20218;-83
2022/01/05 00:21:31;;;;;;;2.67;2.30;;;;;;;;;;5012265;28;20203;-83
2022/01/05 00:23:58;;;;;;;2.83;2.17;;;;;;;;;;5020678;28;20700;-84
2022/01/05 00:26:27;;;;;;;4.57;2.30;;;;;;;;;;5013415;28;20229;-83
2022/01/05 00:28:55;;;;;;;2.20;2.00;;;;;;;;;;5019369;28;20625;-83
2022/01/05 00:31:22;;;;;;;2.57;1.90;;;;;;;;;;5012775;28;20261;-83
2022/01/05 00:33:50;;;;;;;2.57;1.90;;;;;;;;;;5020015;28;20226;-83
2022/01/05 00:36:17;;;;;;;1.90;1.63;;;;;;;;;;5013352;28;20203;-83
2022/01/05 00:38:45;;;;;;;2.60;1.70;;;;;;;;;;5020319;28;20260;-83
2022/01/05 00:41:12;;;;;;;2.27;1.60;;;;;;;;;;5018237;28;20210;-83
2022/01/05 00:43:41;;;;;;;2.00;1.67;;;;;;;;;;5019057;28;20223;-83
2022/01/05 00:46:09;;;;;;;2.10;1.90;;;;;;;;;;5019939;28;20216;-83
2022/01/05 00:48:36;;;;;;;1.90;1.73;;;;;;;;;;5018553;28;20256;-83
2022/01/05 00:51:04;;;;;;;2.20;2.00;;;;;;;;;;5007483;28;20343;-83
2022/01/05 00:53:31;;;;;;;2.50;1.93;;;;;;;;;;5014030;28;20226;-83
2022/01/05 00:55:59;;;;;;;2.17;1.90;;;;;;;;;;5014921;28;20203;-83
2022/01/05 00:58:26;;;;;;;1.80;1.70;;;;;;;;;;5014117;28;20230;-84
2022/01/05 01:00:56;;;;;;;1.80;1.70;;;;;;;;;;5016031;28;20277;-83
2022/01/05 01:03:23;;;;;;;2.20;1.70;;;;;;;;;;5014491;28;20242;-83
2022/01/05 01:05:51;;;;;;;2.13;1.80;;;;;;;;;;5015822;28;20226;-84
2022/01/05 01:08:18;;;;;;;2.10;1.90;;;;;;;;;;5019633;28;20211;-84
2022/01/05 01:10:46;;;;;;;2.17;1.70;;;;;;;;;;5017153;28;20223;-84
2022/01/05 01:13:16;;;;;;;2.07;1.80;;;;;;;;;;5008819;28;20249;-83
2022/01/05 01:15:44;;;;;;;3.03;1.70;;;;;;;;;;5013180;28;20214;-83
2022/01/05 01:18:15;;;;;;;1.50;1.40;;;;;;;;;;5018310;28;20230;-83
2022/01/05 01:20:43;;;;;;;1.60;1.40;;;;;;;;;;5017261;28;20207;-83
2022/01/05 01:23:11;;;;;;;2.83;2.00;;;;;;;;;;5007656;28;20243;-83
2022/01/05 01:25:38;;;;;;;1.90;1.50;;;;;;;;;;5013478;28;20239;-83
2022/01/05 01:28:06;;;;;;;1.53;1.43;;;;;;;;;;5017557;28;20233;-84
2022/01/05 01:30:34;;;;;;;1.50;1.40;;;;;;;;;;5018395;28;20214;-83
2022/01/05 01:33:01;;;;;;;2.73;1.40;;;;;;;;;;5013868;28;20235;-86
2022/01/05 01:35:31;;;;;;;1.40;1.30;;;;;;;;;;5008200;28;20207;-83
2022/01/05 01:37:58;;;;;;;1.30;1.20;;;;;;;;;;5013457;28;20306;-82
2022/01/05 01:40:25;;;;;;;1.20;1.10;;;;;;;;;;5010354;28;20218;-83
2022/01/05 01:42:53;;;;;;;1.30;1.20;;;;;;;;;;5015195;28;20505;-82
2022/01/05 01:45:20;;;;;;;1.60;1.30;;;;;;;;;;5011642;28;20206;-83
2022/01/05 01:47:47;;;;;;;1.17;1.10;;;;;;;;;;5016603;28;20221;-83
2022/01/05 01:50:15;;;;;;;1.33;1.23;;;;;;;;;;5017356;28;20256;-83
2022/01/05 01:52:44;;;;;;;1.83;1.20;;;;;;;;;;5007596;28;20227;-83
2022/01/05 01:55:12;;;;;;;1.40;1.30;;;;;;;;;;5019173;28;20222;-84
2022/01/05 01:57:41;;;;;;;1.30;1.20;;;;;;;;;;5011897;28;20208;-82
2022/01/05 02:00:09;;;;;;;2.20;1.30;;;;;;;;;;5011177;28;20214;-84
2022/01/05 02:02:37;;;;;;;1.63;1.37;;;;;;;;;;5015083;28;20261;-83
2022/01/05 02:05:05;;;;;;;1.50;1.40;;;;;;;;;;5011133;28;20257;-83
2022/01/05 02:07:32;;;;;;;2.00;1.33;;;;;;;;;;5013810;28;20266;-85
2022/01/05 02:10:01;;;;;;;1.40;1.30;;;;;;;;;;5007330;28;20323;-83
2022/01/05 02:12:29;;;;;;;1.43;1.30;;;;;;;;;;5014508;28;20207;-83
2022/01/05 02:14:57;;;;;;;1.90;1.47;;;;;;;;;;5005278;28;20319;-84
2022/01/05 02:17:41;;;;;;;2.00;1.50;;;;;;;;;;5006429;28;20258;-84
2022/01/05 02:20:12;;;;;;;1.50;1.40;;;;;;;;;;5009798;28;20206;-83
2022/01/05 02:22:41;;;;;;;2.70;1.60;;;;;;;;;;5011548;28;20202;-83
2022/01/05 02:25:09;;;;;;;2.03;1.47;;;;;;;;;;5013329;28;20264;-81
2022/01/05 02:27:38;;;;;;;1.70;1.50;;;;;;;;;;5006786;28;20206;-83
2022/01/05 02:30:06;;;;;;;2.23;1.47;;;;;;;;;;5011785;28;20195;-85
2022/01/05 02:32:33;;;;;;;1.60;1.50;;;;;;;;;;5022317;28;20238;-85
2022/01/05 02:35:01;;;;;;;3.50;1.80;;;;;;;;;;5021034;28;20202;-83
2022/01/05 02:37:28;;;;;;;2.10;1.60;;;;;;;;;;5017821;28;20216;-83
2022/01/05 02:39:57;;;;;;;1.67;1.53;;;;;;;;;;5029211;28;20202;-83
2022/01/05 02:42:27;;;;;;;2.03;1.40;;;;;;;;;;5046683;28;20210;-80
2022/01/05 02:44:55;;;;;;;1.67;1.50;;;;;;;;;;5018635;28;20210;-82
2022/01/05 02:47:22;;;;;;;1.50;1.40;;;;;;;;;;5009563;28;20227;-81
2022/01/05 02:49:49;;;;;;;1.50;1.40;;;;;;;;;;5066233;23;20722;-83
2022/01/05 02:52:17;;;;;;;1.47;1.37;;;;;;;;;;5035967;28;20245;-83
2022/01/05 02:54:44;;;;;;;2.17;1.50;;;;;;;;;;5039409;28;20256;-84
2022/01/05 02:57:13;;;;;;;1.60;1.50;;;;;;;;;;5036694;28;20198;-83
2022/01/05 02:59:40;;;;;;;1.53;1.43;;;;;;;;;;5039489;28;20217;-84
2022/01/05 03:02:07;;;;;;;1.70;1.60;;;;;;;;;;5039547;28;20553;-82
2022/01/05 03:04:35;;;;;;;1.97;1.60;;;;;;;;;;5045279;28;20198;-84
2022/01/05 03:07:02;;;;;;;2.07;1.80;;;;;;;;;;5042538;28;20221;-83
2022/01/05 03:09:29;;;;;;;2.20;1.80;;;;;;;;;;5041445;28;20217;-82
2022/01/05 03:11:57;;;;;;;1.80;1.70;;;;;;;;;;5037058;28;20232;-83
2022/01/05 03:14:25;;;;;;;2.00;1.80;;;;;;;;;;5037169;28;20309;-84
2022/01/05 03:16:52;;;;;;;2.00;1.80;;;;;;;;;;5038456;28;20210;-83
2022/01/05 03:19:20;;;;;;;2.10;1.90;;;;;;;;;;5037755;28;20264;-83
2022/01/05 03:21:47;;;;;;;1.90;1.70;;;;;;;;;;5036206;28;20202;-84
2022/01/05 03:24:14;;;;;;;1.87;1.77;;;;;;;;;;5036955;28;20214;-84
2022/01/05 03:26:41;;;;;;;2.00;1.87;;;;;;;;;;5037398;28;20251;-83
2022/01/05 03:29:09;;;;;;;2.47;2.27;;;;;;;;;;5036668;28;20248;-83
2022/01/05 03:31:38;;;;;;;2.67;2.07;;;;;;;;;;5036572;28;20279;-83
2022/01/05 03:34:06;;;;;;;2.10;1.90;;;;;;;;;;5036708;28;20209;-83
2022/01/05 03:36:33;;;;;;;2.27;2.07;;;;;;;;;;5036557;28;20224;-83
2022/01/05 03:39:00;;;;;;;2.13;1.93;;;;;;;;;;5037059;28;20225;-84
2022/01/05 03:41:30;;;;;;;1.90;1.80;;;;;;;;;;5036624;28;20206;-84
2022/01/05 03:43:57;;;;;;;2.13;1.93;;;;;;;;;;5037656;28;20292;-83
2022/01/05 03:46:24;;;;;;;1.90;1.80;;;;;;;;;;5036901;28;20212;-83
2022/01/05 03:48:53;;;;;;;2.13;1.90;;;;;;;;;;5035303;28;20226;-84
2022/01/05 03:51:21;;;;;;;2.43;1.90;;;;;;;;;;5035416;28;20213;-83
2022/01/05 03:53:48;;;;;;;2.57;1.60;;;;;;;;;;5035773;28;20238;-83
2022/01/05 03:56:15;;;;;;;1.30;1.20;;;;;;;;;;5035941;28;20289;-83
2022/01/05 03:58:42;;;;;;;1.43;1.33;;;;;;;;;;5030605;28;20229;-85
2022/01/05 04:01:10;;;;;;;1.40;1.30;;;;;;;;;;5028154;28;20222;-83
2022/01/05 04:03:37;;;;;;;1.47;1.37;;;;;;;;;;5036256;28;20224;-83
2022/01/05 04:06:06;;;;;;;1.43;1.33;;;;;;;;;;5035634;28;20205;-85
2022/01/05 04:08:33;;;;;;;1.17;1.17;;;;;;;;;;5032710;28;20230;-85
2022/01/05 04:11:00;;;;;;;1.20;1.10;;;;;;;;;;5035296;28;20202;-84
2022/01/05 04:13:28;;;;;;;1.00;1.00;;;;;;;;;;5035718;28;20217;-85
2022/01/05 04:15:55;;;;;;;1.00;1.00;;;;;;;;;;5039381;28;20202;-84
2022/01/05 04:18:22;;;;;;;2.70;1.10;;;;;;;;;;5040115;28;20214;-85
2022/01/05 04:20:49;;;;;;;1.17;1.17;;;;;;;;;;5038902;28;20272;-85
2022/01/05 04:23:18;;;;;;;1.43;1.20;;;;;;;;;;5040134;28;20252;-85
2022/01/05 04:25:46;;;;;;;1.10;1.10;;;;;;;;;;5039724;28;20236;-85
2022/01/05 04:28:13;;;;;;;1.17;1.10;;;;;;;;;;5040260;28;20202;-82
2022/01/05 04:30:40;;;;;;;1.30;1.20;;;;;;;;;;5038772;28;20228;-82
2022/01/05 04:33:08;;;;;;;1.20;1.10;;;;;;;;;;5038802;28;20198;-84
2022/01/05 04:35:35;;;;;;;1.40;1.30;;;;;;;;;;5039531;28;20228;-84
2022/01/05 04:38:02;;;;;;;1.80;1.20;;;;;;;;;;5039201;28;20198;-85
2022/01/05 04:40:31;;;;;;;1.40;1.30;;;;;;;;;;5039039;28;20249;-85
2022/01/05 04:42:59;;;;;;;1.10;1.00;;;;;;;;;;5039700;28;20213;-84
2022/01/05 04:45:26;;;;;;;1.73;1.10;;;;;;;;;;5039715;28;20211;-83
2022/01/05 04:47:53;;;;;;;2.60;1.23;;;;;;;;;;5039474;28;20198;-84
2022/01/05 04:50:21;;;;;;;1.03;1.03;;;;;;;;;;5039617;28;20229;-85
2022/01/05 04:52:48;;;;;;;1.70;1.30;;;;;;;;;;5038747;28;20214;-83
2022/01/05 04:55:18;;;;;;;1.03;1.03;;;;;;;;;;5039359;28;20222;-84
2022/01/05 04:57:46;;;;;;;1.17;1.10;;;;;;;;;;5039485;28;20209;-85
2022/01/05 05:00:14;;;;;;;1.10;1.00;;;;;;;;;;5039778;28;20248;-84
2022/01/05 05:02:41;;;;;;;1.73;1.50;;;;;;;;;;5039074;28;20201;-84
2022/01/05 05:05:09;;;;;;;1.00;1.00;;;;;;;;;;5039342;28;20205;-85
2022/01/05 05:07:37;;;;;;;2.47;1.20;;;;;;;;;;5039505;28;20259;-85
2022/01/05 05:10:04;;;;;;;1.60;1.50;;;;;;;;;;5039784;28;20232;-84
2022/01/05 05:12:31;;;;;;;2.70;2.13;;;;;;;;;;5040880;28;20217;-85
2022/01/05 05:15:00;;;;;;;3.00;2.60;;;;;;;;;;5056731;28;20230;-85
2022/01/05 05:17:27;;;;;;;2.63;2.40;;;;;;;;;;5055533;28;20198;-85
2022/01/05 05:19:55;;;;;;;4.10;2.37;;;;;;;;;;5041270;28;20305;-84
2022/01/05 05:22:22;;;;;;;3.77;2.57;;;;;;;;;;5038731;28;20232;-85
2022/01/05 05:24:49;;;;;;;5.53;2.87;;;;;;;;;;5039075;28;20228;-84
2022/01/05 05:27:19;;;;;;;4.77;2.67;;;;;;;;;;5038365;28;20225;-83
2022/01/05 05:29:47;;;;;;;9.67;3.00;;;;;;;;;;5038738;28;20252;-84
2022/01/05 05:32:16;;;;;;;2.90;2.57;;;;;;;;;;5037913;28;20209;-85
2022/01/05 05:34:43;;;;;;;4.93;3.20;;;;;;;;;;5038846;28;20283;-85
2022/01/05 05:37:11;;;;;;;3.30;3.00;;;;;;;;;;5038943;28;20224;-86
2022/01/05 05:39:40;;;;;;;5.47;2.93;;;;;;;;;;5038814;28;20785;-84
2022/01/05 05:42:07;;;;;;;3.27;2.70;;;;;;;;;;5038087;28;20198;-85
2022/01/05 05:44:35;;;;;;;4.50;2.93;;;;;;;;;;5039163;28;20202;-85
2022/01/05 05:47:02;;;;;;;3.40;3.10;;;;;;;;;;5038649;28;20202;-85
2022/01/05 05:49:31;;;;;;;2.63;2.43;;;;;;;;;;5039851;28;20305;-83
2022/01/05 05:51:58;;;;;;;8.40;3.30;;;;;;;;;;5036962;28;20198;-83
2022/01/05 05:54:25;;;;;;;4.03;3.10;;;;;;;;;;5036587;28;20218;-82
2022/01/05 05:56:53;;;;;;;6.77;3.23;;;;;;;;;;5038149;28;20217;-84
2022/01/05 05:59:20;;;;;;;3.47;3.00;;;;;;;;;;5037091;28;20245;-86
2022/01/05 06:01:47;;;;;;;4.37;3.07;;;;;;;;;;5037325;28;20280;-84
2022/01/05 06:04:14;;;;;;;4.90;3.20;;;;;;;;;;5037036;28;20205;-84
2022/01/05 06:06:43;;;;;;;4.70;3.40;;;;;;;;;;5037961;28;20213;-86
2022/01/05 06:09:10;;;;;;;6.63;3.37;;;;;;;;;;5036764;28;20218;-84
2022/01/05 06:11:38;;;;;;;5.23;3.00;;;;;;;;;;5037832;28;20224;-85
2022/01/05 06:14:05;;;;;;;3.77;2.90;;;;;;;;;;5037486;28;20218;-84
2022/01/05 06:16:32;;;;;;;5.07;2.90;;;;;;;;;;5037181;28;20292;-85
2022/01/05 06:18:59;;;;;;;4.07;3.13;;;;;;;;;;5037551;28;20761;-85
2022/01/05 06:21:27;;;;;;;4.40;3.10;;;;;;;;;;5036899;28;20237;-85
2022/01/05 06:23:58;;;;;;;4.30;3.13;;;;;;;;;;5037393;28;20213;-84
2022/01/05 06:26:25;;;;;;;5.43;3.40;;;;;;;;;;5038334;28;20206;-84
2022/01/05 06:28:52;;;;;;;4.90;3.50;;;;;;;;;;5037304;28;20230;-84
2022/01/05 06:31:19;;;;;;;7.37;3.60;;;;;;;;;;5034547;28;20236;-85
2022/01/05 06:33:47;;;;;;;4.43;3.50;;;;;;;;;;5042280;28;20224;-85
2022/01/05 06:36:14;;;;;;;6.00;3.70;;;;;;;;;;5037449;28;20252;-85
2022/01/05 06:38:41;;;;;;;5.03;3.03;;;;;;;;;;5035679;28;20317;-85
2022/01/05 06:41:10;;;;;;;4.67;3.57;;;;;;;;;;5031318;28;20225;-84
2022/01/05 06:43:37;;;;;;;6.97;3.37;;;;;;;;;;5035245;28;20222;-85
2022/01/05 06:46:06;;;;;;;6.03;3.17;;;;;;;;;;5032497;28;20206;-85
2022/01/05 06:48:33;;;;;;;6.60;2.93;;;;;;;;;;5041952;28;20217;-85
2022/01/05 06:51:01;;;;;;;5.20;3.10;;;;;;;;;;5035873;28;20280;-85
2022/01/05 06:53:28;;;;;;;5.03;2.67;;;;;;;;;;5032882;28;20218;-85
2022/01/05 06:55:56;;;;;;;5.13;2.50;;;;;;;;;;5035049;28;20312;-86
2022/01/05 06:58:25;;;;;;;5.00;2.70;;;;;;;;;;5036336;28;20276;-83
2022/01/05 07:00:52;;;;;;;4.83;3.30;;;;;;;;;;5034475;28;20267;-86
2022/01/05 07:03:19;;;;;;;4.70;3.70;;;;;;;;;;5031906;28;20202;-85
2022/01/05 07:05:47;;;;;;;6.57;3.40;;;;;;;;;;5035680;28;20211;-85
2022/01/05 07:08:14;;;;;;;5.17;3.63;;;;;;;;;;5035347;28;20247;-86
2022/01/05 07:10:49;;;;;;;4.83;3.20;;;;;;;;;;5034649;28;20206;-83
2022/01/05 07:13:16;;;;;;;6.63;3.47;;;;;;;;;;5034963;28;20229;-84
2022/01/05 07:15:45;;;;;;;4.00;3.60;;;;;;;;;;5033027;28;20252;-84
2022/01/05 07:18:12;;;;;;;4.87;3.60;;;;;;;;;;5031975;28;20297;-85
2022/01/05 07:20:39;;;;;;;4.50;3.50;;;;;;;;;;5029607;28;20202;-83
2022/01/05 07:23:06;;;;;;;6.23;4.00;;;;;;;;;;5034044;28;20251;-84
2022/01/05 07:25:34;;;;;;;6.07;3.93;;;;;;;;;;5034698;28;20289;-83
2022/01/05 07:28:01;;;;;;;6.50;3.70;;;;;;;;;;5035044;28;20284;-85
2022/01/05 07:30:28;;;;;;;7.67;4.10;;;;;;;;;;5035433;28;20225;-84
2022/01/05 07:32:57;;;;;;;7.10;4.50;;;;;;;;;;5036168;28;20206;-84
2022/01/05 07:35:25;;;;;;;7.80;4.43;;;;;;;;;;5035395;28;20775;-84
2022/01/05 07:37:52;;;;;;;6.37;4.43;;;;;;;;;;5035458;28;20209;-84
2022/01/05 07:40:19;;;;;;;9.50;4.60;;;;;;;;;;5035601;28;20313;-88
2022/01/05 07:42:47;;;;;;;8.83;4.80;;;;;;;;;;5035578;28;20275;-85
2022/01/05 07:45:14;;;;;;;10.90;4.83;;;;;;;;;;5036997;28;20225;-85
2022/01/05 07:47:41;;;;;;;13.60;4.93;;;;;;;;;;5032894;28;20232;-85
2022/01/05 07:50:14;;;;;;;8.33;5.20;;;;;;;;;;5041580;28;20225;-86
2022/01/05 07:52:41;;;;;;;5.93;4.60;;;;;;;;;;5042520;28;20209;-85
2022/01/05 07:55:09;;;;;;;7.37;5.43;;;;;;;;;;5043253;28;20248;-86
2022/01/05 07:57:37;;;;;;;8.37;5.37;;;;;;;;;;5041630;28;20194;-84
2022/01/05 08:00:08;;;;;;;7.67;5.37;;;;;;;;;;5038009;28;20272;-84
2022/01/05 08:02:35;;;;;;;8.50;5.30;;;;;;;;;;5037062;28;20252;-84
2022/01/05 08:05:06;;;;;;;10.93;5.93;;;;;;;;;;5037871;28;20225;-86
2022/01/05 08:07:36;;;;;;;10.77;5.97;;;;;;;;;;5034061;28;20663;-85
2022/01/05 08:10:06;;;;;;;11.73;6.20;;;;;;;;;;5039197;28;20272;-86
2022/01/05 08:12:36;;;;;;;15.93;6.30;;;;;;;;;;5030230;28;20232;-86
2022/01/05 08:15:07;;;;;;;10.27;6.63;;;;;;;;;;5029840;28;20221;-85
2022/01/05 08:17:38;;;;;;;12.73;6.47;;;;;;;;;;5026397;28;20209;-86
2022/01/05 08:20:17;;;;;;;12.63;7.13;;;;;;;;;;5037356;28;20279;-86
2022/01/05 08:22:48;;;;;;;13.50;6.90;;;;;;;;;;5039345;28;20209;-86
2022/01/05 08:25:20;;;;;;;11.53;7.03;;;;;;;;;;5054216;28;20194;-83
2022/01/05 08:27:48;;;;;;;11.37;7.07;;;;;;;;;;5039086;28;20221;-86
2022/01/05 08:30:19;;;;;;;10.17;6.37;;;;;;;;;;5041405;28;20257;-85
2022/01/05 08:32:49;;;;;;;9.90;6.30;;;;;;;;;;5022668;28;20294;-85
2022/01/05 08:35:17;;;;;;;12.57;6.33;;;;;;;;;;5031876;28;20684;-86
2022/01/05 08:37:47;;;;;;;12.40;6.03;;;;;;;;;;5038653;28;20198;-83
2022/01/05 08:40:17;;;;;;;9.90;6.10;;;;;;;;;;5039310;28;20217;-83
2022/01/05 08:42:44;;;;;;;10.47;6.10;;;;;;;;;;5037556;28;20209;-84
2022/01/05 08:45:12;;;;;;;9.60;5.90;;;;;;;;;;5046115;28;20217;-84
2022/01/05 08:47:39;;;;;;;8.20;5.73;;;;;;;;;;5039040;28;20198;-84
2022/01/05 08:50:07;;;;;;;8.27;5.47;;;;;;;;;;5046088;23;20230;-89
2022/01/05 08:52:34;;;;;;;8.03;5.50;;;;;;;;;;5018501;28;20198;-83
2022/01/05 08:55:03;;;;;;;9.00;4.90;;;;;;;;;;5019187;28;20222;-83
2022/01/05 08:57:32;;;;;;;6.83;4.60;;;;;;;;;;5023633;28;20206;-83
2022/01/05 08:59:59;;;;;;;7.27;4.80;;;;;;;;;;5018347;28;20257;-88
2022/01/05 09:02:28;;;;;;;6.83;3.97;;;;;;;;;;5004536;28;20206;-86
2022/01/05 09:04:57;;;;;;;7.67;5.03;;;;;;;;;;5016109;28;20222;-92
2022/01/05 09:07:24;;;;;;;10.80;4.97;;;;;;;;;;5015776;28;20199;-86
2022/01/05 09:09:52;;;;;;;9.50;4.67;;;;;;;;;;5019547;28;20306;-85
2022/01/05 09:12:19;;;;;;;5.00;4.13;;;;;;;;;;5025876;28;20219;-86
2022/01/05 09:14:48;;;;;;;6.17;4.43;;;;;;;;;;5017622;28;20222;-86
2022/01/05 09:17:15;;;;;;;6.27;4.20;;;;;;;;;;5017834;28;20293;-86
2022/01/05 09:19:42;;;;;;;5.33;3.63;;;;;;;;;;5017194;28;20199;-86
2022/01/05 09:22:11;;;;;;;7.47;3.80;;;;;;;;;;5016716;28;20209;-88
2022/01/05 09:24:39;;;;;;;6.67;3.60;;;;;;;;;;5017146;28;20257;-86
2022/01/05 09:27:06;;;;;;;5.70;3.60;;;;;;;;;;5018391;28;20294;-86
2022/01/05 09:29:34;;;;;;;3.90;3.50;;;;;;;;;;5017319;28;20202;-86
2022/01/05 09:32:06;;;;;;;5.73;3.30;;;;;;;;;;5022940;28;20285;-85
2022/01/05 09:34:34;;;;;;;4.97;3.20;;;;;;;;;;5020680;28;20198;-84
2022/01/05 09:37:06;;;;;;;5.13;3.50;;;;;;;;;;5016588;28;20211;-85
2022/01/05 09:42:19;;;;;;;7.27;3.60;;;;;;;;;;5023095;28;20206;-85
2022/01/05 09:44:49;;;;;;;4.80;2.93;;;;;;;;;;5025675;28;20305;-82
2022/01/05 09:47:29;;;;;;;6.60;2.93;;;;;;;;;;5024239;28;20294;-80
2022/01/05 09:50:01;;;;;;;5.17;2.93;;;;;;;;;;5017980;28;20234;-80
2022/01/05 09:52:28;;;;;;;7.07;3.03;;;;;;;;;;5018157;28;20263;-79
2022/01/05 09:54:57;;;;;;;5.27;2.93;;;;;;;;;;5020910;28;20207;-83
2022/01/05 09:57:29;;;;;;;5.63;3.20;;;;;;;;;;5018258;28;20239;-89
2022/01/05 09:59:57;;;;;;;4.37;2.53;;;;;;;;;;5016669;28;20226;-85
2022/01/05 10:02:30;;;;;;;4.30;2.20;;;;;;;;;;5016893;28;20229;-86
2022/01/05 10:04:57;;;;;;;4.33;2.23;;;;;;;;;;5012397;28;20199;-82
2022/01/05 10:07:25;;;;;;;6.03;2.60;;;;;;;;;;5022715;28;20262;-82
2022/01/05 10:09:53;;;;;;;4.00;2.50;;;;;;;;;;5021367;28;20237;-83
2022/01/05 10:12:22;;;;;;;3.80;2.20;;;;;;;;;;5021326;28;20214;-83
2022/01/05 10:14:50;;;;;;;5.17;2.40;;;;;;;;;;5022482;28;20237;-83
2022/01/05 10:17:23;;;;;;;5.97;2.73;;;;;;;;;;5019715;28;20206;-83
2022/01/05 10:19:57;;;;;;;5.17;2.40;;;;;;;;;;5021747;28;20245;-85
2022/01/05 10:22:29;;;;;;;5.40;2.27;;;;;;;;;;5029896;28;20213;-81
2022/01/05 10:24:57;;;;;;;4.33;2.00;;;;;;;;;;5023049;28;20233;-84
2022/01/05 10:27:26;;;;;;;4.53;2.40;;;;;;;;;;5015598;28;20202;-86
2022/01/05 10:29:54;;;;;;;5.07;2.67;;;;;;;;;;5010641;28;20245;-84
2022/01/05 10:32:22;;;;;;;9.60;3.03;;;;;;;;;;5022094;28;20238;-85
2022/01/05 10:35:14;;;;;;;4.80;2.10;;;;;;;;;;5016620;28;20210;-86
2022/01/05 10:37:42;;;;;;;4.43;2.10;;;;;;;;;;5015489;28;20195;-85
2022/01/05 10:40:11;;;;;;;3.83;1.90;;;;;;;;;;5022869;28;20218;-85
2022/01/05 10:42:39;;;;;;;4.83;2.30;;;;;;;;;;5014514;28;20288;-85
2022/01/05 10:45:08;;;;;;;4.30;2.13;;;;;;;;;;5014430;28;20593;-85
2022/01/05 10:47:36;;;;;;;5.50;2.00;;;;;;;;;;5018788;28;20232;-86
2022/01/05 10:50:04;;;;;;;4.30;2.00;;;;;;;;;;5020763;28;20241;-85
2022/01/05 10:52:33;;;;;;;5.77;2.27;;;;;;;;;;5013900;28;20210;-85
2022/01/05 10:55:10;;;;;;;4.50;2.00;;;;;;;;;;5016405;28;20206;-85
2022/01/05 10:57:37;;;;;;;7.90;2.60;;;;;;;;;;5013595;28;20206;-85
2022/01/05 11:00:05;;;;;;;6.63;1.90;;;;;;;;;;5019487;28;20226;-85
2022/01/05 11:02:34;;;;;;;3.10;2.00;;;;;;;;;;5021769;28;20222;-86
2022/01/05 11:05:15;;;;;;;9.97;2.73;;;;;;;;;;5022195;28;20215;-85
2022/01/05 11:07:47;;;;;;;6.73;2.43;;;;;;;;;;5020146;28;20206;-86
2022/01/05 11:10:15;;;;;;;4.73;2.10;;;;;;;;;;5015689;28;20276;-86
2022/01/05 11:12:43;;;;;;;6.40;2.10;;;;;;;;;;5013439;28;20230;-86
2022/01/05 11:15:21;;;;;;;7.27;2.40;;;;;;;;;;5014946;28;20225;-87
2022/01/05 11:18:10;;;;;;;3.63;2.10;;;;;;;;;;5015112;28;20233;-86
2022/01/05 11:20:38;;;;;;;5.07;2.23;;;;;;;;;;5005694;28;20234;-86
2022/01/05 11:23:08;;;;;;;5.87;2.20;;;;;;;;;;5028642;28;20200;-86
2022/01/05 11:25:37;;;;;;;4.97;2.30;;;;;;;;;;5025485;28;20198;-87
2022/01/05 11:28:07;;;;;;;3.00;2.37;;;;;;;;;;5016847;28;20212;-87
2022/01/05 11:30:35;;;;;;;6.60;2.27;;;;;;;;;;5011065;28;20255;-87
2022/01/05 11:33:02;;;;;;;4.17;2.23;;;;;;;;;;5012999;28;20274;-86
2022/01/05 11:35:29;;;;;;;5.63;2.47;;;;;;;;;;5015621;28;20210;-86
2022/01/05 11:37:57;;;;;;;8.50;2.70;;;;;;;;;;5017776;28;20228;-84
2022/01/05 11:40:26;;;;;;;4.77;2.40;;;;;;;;;;5016128;28;20317;-88
2022/01/05 11:42:59;;;;;;;7.10;2.70;;;;;;;;;;5020402;28;20226;-86
2022/01/05 11:45:31;;;;;;;4.57;2.17;;;;;;;;;;5014751;28;20218;-87
2022/01/05 11:48:13;;;;;;;5.03;2.27;;;;;;;;;;5013496;28;20211;-83
2022/01/05 11:50:47;;;;;;;4.47;2.40;;;;;;;;;;5016131;28;20317;-83
2022/01/05 11:53:14;;;;;;;4.97;2.10;;;;;;;;;;5026951;28;20262;-83
2022/01/05 11:56:01;;;;;;;4.13;2.23;;;;;;;;;;5024725;28;20238;-83
2022/01/05 11:58:31;;;;;;;5.77;2.30;;;;;;;;;;5017711;28;20207;-83
2022/01/05 12:01:13;;;;;;;4.13;2.20;;;;;;;;;;5016971;28;20286;-85
2022/01/05 12:04:02;;;;;;;5.40;2.67;;;;;;;;;;5012278;28;20229;-82
2022/01/05 12:06:31;;;;;;;8.10;2.70;;;;;;;;;;5013348;28;20200;-82
2022/01/05 12:08:58;;;;;;;6.70;2.20;;;;;;;;;;5015358;28;20210;-81
2022/01/05 12:11:29;;;;;;;4.60;2.40;;;;;;;;;;5013780;28;20284;-81
2022/01/05 12:13:58;;;;;;;5.53;2.23;;;;;;;;;;5017141;28;20195;-81
2022/01/05 12:16:25;;;;;;;4.73;2.20;;;;;;;;;;5015283;28;20253;-81
2022/01/05 12:19:06;;;;;;;5.90;2.57;;;;;;;;;;5015775;28;20293;-81
2022/01/05 12:21:43;;;;;;;5.97;2.10;;;;;;;;;;5008785;28;20233;-82
2022/01/05 12:24:10;;;;;;;6.20;2.20;;;;;;;;;;5016853;28;20203;-81
2022/01/05 12:26:37;;;;;;;4.43;1.90;;;;;;;;;;5019682;28;20647;-81
2022/01/05 12:29:06;;;;;;;6.93;2.53;;;;;;;;;;5016749;28;20210;-81
2022/01/05 12:31:52;;;;;;;5.47;2.00;;;;;;;;;;5016663;28;20286;-81
2022/01/05 12:34:34;;;;;;;4.40;1.90;;;;;;;;;;5017851;28;20294;-82
2022/01/05 12:37:01;;;;;;;6.40;2.00;;;;;;;;;;5018089;28;20279;-81
2022/01/05 12:39:49;;;;;;;5.87;2.30;;;;;;;;;;5030196;28;20234;-82
2022/01/05 12:42:23;;;;;;;5.47;2.53;;;;;;;;;;5015597;28;20293;-82
2022/01/05 12:44:53;;;;;;;6.20;2.30;;;;;;;;;;5021541;28;20230;-84
2022/01/05 12:47:37;;;;;;;3.33;1.97;;;;;;;;;;5022457;28;20298;-86
2022/01/05 12:50:16;;;;;;;5.40;2.10;;;;;;;;;;5018272;28;20246;-86
2022/01/05 12:52:44;;;;;;;5.90;2.63;;;;;;;;;;5019117;28;20233;-86
2022/01/05 12:55:11;;;;;;;6.50;2.43;;;;;;;;;;5017018;28;20286;-85
2022/01/05 12:57:39;;;;;;;4.97;2.20;;;;;;;;;;5019014;28;20234;-86
2022/01/05 13:00:09;;;;;;;6.50;2.50;;;;;;;;;;5021672;28;20685;-87
2022/01/05 13:02:41;;;;;;;4.63;2.07;;;;;;;;;;5017025;28;20213;-87
2022/01/05 13:05:09;;;;;;;4.00;2.00;;;;;;;;;;5012040;28;20210;-87
2022/01/05 13:07:41;;;;;;;4.77;2.37;;;;;;;;;;5014989;28;20297;-86
2022/01/05 13:10:13;;;;;;;4.33;2.50;;;;;;;;;;5018014;28;20231;-85
2022/01/05 13:12:40;;;;;;;6.87;2.60;;;;;;;;;;5014490;28;20212;-84
2022/01/05 13:15:10;;;;;;;6.47;2.47;;;;;;;;;;5018203;28;20289;-85
2022/01/05 13:17:38;;;;;;;5.40;2.30;;;;;;;;;;5021504;28;20292;-85
2022/01/05 13:20:08;;;;;;;6.57;2.33;;;;;;;;;;5044705;23;20222;-84
2022/01/05 13:22:37;;;;;;;3.37;2.17;;;;;;;;;;5035592;28;20202;-86
2022/01/05 13:25:06;;;;;;;5.90;2.20;;;;;;;;;;5032744;28;20281;-85
2022/01/05 13:27:37;;;;;;;7.17;2.20;;;;;;;;;;5029257;28;20241;-82
2022/01/05 13:30:08;;;;;;;6.63;2.20;;;;;;;;;;5029057;28;20226;-83
2022/01/05 13:32:38;;;;;;;5.10;2.10;;;;;;;;;;5047987;28;20263;-83
2022/01/05 13:35:10;;;;;;;5.30;2.00;;;;;;;;;;5035462;28;20301;-82
2022/01/05 13:37:38;;;;;;;4.13;2.30;;;;;;;;;;5037938;28;20263;-82
2022/01/05 13:40:10;;;;;;;6.17;2.53;;;;;;;;;;5033621;28;20238;-82
2022/01/05 13:42:39;;;;;;;5.20;2.23;;;;;;;;;;5033957;28;20290;-82
2022/01/05 13:45:07;;;;;;;4.70;1.77;;;;;;;;;;5034547;28;20229;-83
2022/01/05 13:47:36;;;;;;;5.43;2.00;;;;;;;;;;5032853;28;20202;-82
2022/01/05 13:50:12;;;;;;;5.17;2.27;;;;;;;;;;5035999;28;20228;-83
2022/01/05 13:52:40;;;;;;;3.67;1.60;;;;;;;;;;5029111;28;20289;-83
2022/01/05 13:55:08;;;;;;;5.73;2.33;;;;;;;;;;5042876;28;20289;-83
2022/01/05 13:57:36;;;;;;;5.93;2.20;;;;;;;;;;5039019;28;20241;-82
2022/01/05 14:00:07;;;;;;;6.23;2.30;;;;;;;;;;5044143;28;20245;-82
2022/01/05 14:02:34;;;;;;;3.90;2.10;;;;;;;;;;5031858;28;20226;-83
2022/01/05 14:05:03;;;;;;;6.27;2.93;;;;;;;;;;5030158;28;20264;-82
2022/01/05 14:07:31;;;;;;;4.57;2.17;;;;;;;;;;5034129;28;20256;-82
2022/01/05 14:10:15;;;;;;;5.17;2.43;;;;;;;;;;5041357;28;20225;-82
2022/01/05 14:12:49;;;;;;;6.80;3.50;;;;;;;;;;5026860;28;20217;-83
2022/01/05 14:15:17;;;;;;;8.40;3.77;;;;;;;;;;5030219;28;20202;-84
2022/01/05 14:18:01;;;;;;;5.33;2.70;;;;;;;;;;5036781;28;20230;-85
2022/01/05 14:20:28;;;;;;;3.97;2.00;;;;;;;;;;5036860;28;20256;-85
2022/01/05 14:23:10;;;;;;;4.97;1.90;;;;;;;;;;5036655;28;20212;-84
2022/01/05 14:25:38;;;;;;;4.73;2.57;;;;;;;;;;5037062;28;20210;-85
2022/01/05 14:28:17;;;;;;;3.83;2.10;;;;;;;;;;5036892;28;20198;-84
2022/01/05 14:30:58;;;;;;;4.40;1.90;;;;;;;;;;5033178;28;20256;-85
2022/01/05 14:33:50;;;;;;;4.07;1.67;;;;;;;;;;5042015;28;20214;-85
2022/01/05 14:36:39;;;;;;;3.77;1.67;;;;;;;;;;5036979;28;20275;-84
2022/01/05 14:39:24;;;;;;;4.17;2.73;;;;;;;;;;5025915;28;20291;-84
2022/01/05 14:44:50;;;;;;;4.67;1.70;;;;;;;;;;5028580;28;20281;-85
2022/01/05 14:47:24;;;;;;;5.10;1.73;;;;;;;;;;5036347;28;20217;-85
2022/01/05 14:52:31;;;;;;;4.33;1.80;;;;;;;;;;5033990;28;20239;-84
2022/01/05 14:54:59;;;;;;;4.37;2.20;;;;;;;;;;5044606;28;20265;-84
2022/01/05 14:57:32;;;;;;;4.57;2.33;;;;;;;;;;5040645;28;20214;-83
2022/01/05 14:59:59;;;;;;;4.57;2.40;;;;;;;;;;5047364;28;20202;-82
2022/01/05 15:02:26;;;;;;;5.97;2.30;;;;;;;;;;5031159;28;20202;-85
2022/01/05 15:04:54;;;;;;;5.63;2.13;;;;;;;;;;5033001;28;20275;-85